Time;durP1;ratioP1;P1;durP2;ratioP2;P2;SDS_P1;SDS_P2;PMS_P1;PMS_P2;Temp;Humidity;BMP_temperature;BMP_pressure;BME280_temperature;BME280_humidity;BME280_pressure;Samples;Min_cycle;Max_cycle;Signal;HPM_P1;HPM_P2
2021/05/31 05:01:22;;;;;;;5.40;2.50;;;10.10;93.00;;;;;;5486163;23;20276;-78
2021/05/31 05:03:49;;;;;;;4.68;2.58;;;10.00;93.10;;;;;;4938366;29;20083;-78
2021/05/31 05:06:16;;;;;;;5.18;2.70;;;10.10;93.30;;;;;;4938089;29;20086;-78
2021/05/31 05:08:43;;;;;;;4.55;2.40;;;10.10;93.40;;;;;;4938070;29;20059;-79
2021/05/31 05:11:10;;;;;;;5.05;2.35;;;10.10;93.50;;;;;;4937789;29;20469;-78
2021/05/31 05:13:36;;;;;;;4.43;2.60;;;10.20;93.50;;;;;;4938020;29;20102;-78
2021/05/31 05:16:03;;;;;;;5.03;2.70;;;10.30;93.50;;;;;;4937908;29;20147;-78
2021/05/31 05:18:31;;;;;;;4.65;2.42;;;10.30;93.50;;;;;;4937915;29;20134;-78
2021/05/31 05:20:59;;;;;;;4.15;2.40;;;10.40;93.50;;;;;;4937763;29;20154;-78
2021/05/31 05:23:25;;;;;;;4.55;2.67;;;10.40;93.50;;;;;;4937941;29;20044;-79
2021/05/31 05:25:52;;;;;;;5.13;2.92;;;10.60;93.40;;;;;;4937890;29;20066;-78
2021/05/31 05:28:19;;;;;;;6.35;2.63;;;10.60;93.50;;;;;;4989887;23;20057;-77
2021/05/31 05:30:49;;;;;;;5.30;2.80;;;10.70;93.50;;;;;;5015173;28;20077;-77
2021/05/31 05:33:16;;;;;;;4.88;2.63;;;10.70;93.50;;;;;;5015447;28;20146;-78
2021/05/31 05:35:49;;;;;;;5.25;2.80;;;10.80;93.50;;;;;;5015407;28;20085;-78
2021/05/31 05:38:33;;;;;;;6.28;2.80;;;10.90;93.50;;;;;;5015224;28;20138;-78
2021/05/31 05:46:48;;;;;;;5.73;3.20;;;11.30;93.30;;;;;;4964060;28;20051;-77
2021/05/31 05:49:15;;;;;;;6.78;3.47;;;11.40;93.00;;;;;;4998072;28;20381;-78
2021/05/31 05:51:43;;;;;;;5.90;3.10;;;11.50;92.50;;;;;;4997409;28;20081;-77
2021/05/31 05:54:09;;;;;;;5.63;2.80;;;11.60;92.30;;;;;;5014540;28;20116;-76
2021/05/31 05:56:36;;;;;;;5.05;2.55;;;11.60;92.10;;;;;;5015592;28;20127;-77
2021/05/31 05:59:03;;;;;;;7.40;2.90;;;11.70;92.10;;;;;;5015273;28;20089;-78
2021/05/31 06:01:30;;;;;;;6.50;3.22;;;11.80;91.90;;;;;;5015296;28;20136;-77
2021/05/31 06:03:57;;;;;;;6.15;3.33;;;11.90;91.60;;;;;;5015073;28;20141;-76
2021/05/31 06:06:25;;;;;;;5.97;2.70;;;12.10;91.60;;;;;;5014743;28;20077;-78
2021/05/31 06:08:54;;;;;;;6.45;3.28;;;12.20;91.80;;;;;;5014981;28;20045;-78
2021/05/31 06:11:21;;;;;;;5.65;2.90;;;12.30;92.00;;;;;;5015070;28;20085;-79
2021/05/31 06:13:51;;;;;;;5.15;3.03;;;12.30;91.40;;;;;;5015269;28;20045;-78
2021/05/31 06:16:17;;;;;;;4.78;2.72;;;12.40;91.30;;;;;;5015111;28;20127;-77
2021/05/31 06:18:44;;;;;;;5.60;3.20;;;12.50;91.20;;;;;;5014535;28;20380;-77
2021/05/31 06:21:11;;;;;;;7.18;3.20;;;12.60;91.00;;;;;;5014447;28;20171;-78
2021/05/31 06:23:37;;;;;;;9.02;3.05;;;12.70;90.90;;;;;;5014550;28;20133;-78
2021/05/31 06:26:05;;;;;;;4.95;2.55;;;12.80;91.10;;;;;;5014565;28;20102;-77
2021/05/31 06:28:32;;;;;;;4.80;2.92;;;12.80;90.80;;;;;;5002595;28;20117;-78
2021/05/31 06:30:58;;;;;;;5.15;3.10;;;13.00;90.70;;;;;;4994958;28;20101;-76
2021/05/31 06:33:25;;;;;;;5.65;2.97;;;13.00;90.60;;;;;;4994235;28;20538;-77
2021/05/31 06:35:54;;;;;;;7.53;3.55;;;12.90;90.50;;;;;;4994941;28;20050;-78
2021/05/31 06:38:20;;;;;;;5.13;3.00;;;13.20;90.30;;;;;;4995394;28;20046;-77
2021/05/31 06:40:47;;;;;;;7.00;3.70;;;13.20;90.30;;;;;;4995506;28;20081;-79
2021/05/31 06:43:15;;;;;;;5.03;2.75;;;13.30;90.20;;;;;;4994597;28;20492;-76
2021/05/31 06:45:42;;;;;;;6.60;2.78;;;13.40;90.40;;;;;;4994328;28;20583;-78
2021/05/31 06:48:10;;;;;;;5.13;2.28;;;13.40;90.40;;;;;;4994119;28;20478;-78
2021/05/31 06:50:37;;;;;;;5.68;2.50;;;13.50;90.00;;;;;;4994480;28;20507;-79
2021/05/31 06:53:03;;;;;;;3.90;2.22;;;13.60;89.50;;;;;;4997665;28;20085;-79
2021/05/31 06:55:31;;;;;;;5.95;2.50;;;13.70;89.20;;;;;;4994554;28;20173;-76
2021/05/31 06:57:59;;;;;;;6.20;2.47;;;13.70;89.10;;;;;;4995050;28;20209;-77
2021/05/31 07:00:28;;;;;;;3.83;2.00;;;13.80;88.80;;;;;;4994195;28;20121;-78
2021/05/31 07:02:55;;;;;;;5.40;2.33;;;13.90;88.30;;;;;;4994542;28;20057;-78
2021/05/31 07:05:23;;;;;;;4.35;2.25;;;14.00;87.60;;;;;;4994811;28;20085;-77
2021/05/31 07:07:50;;;;;;;5.50;2.80;;;14.00;86.60;;;;;;4994408;28;20137;-78
2021/05/31 07:10:18;;;;;;;5.40;2.38;;;14.00;86.00;;;;;;4994121;28;20061;-77
2021/05/31 07:12:45;;;;;;;4.50;2.28;;;14.10;85.50;;;;;;4994025;28;20140;-74
2021/05/31 07:15:14;;;;;;;4.65;2.35;;;14.10;85.20;;;;;;4993815;28;20118;-78
2021/05/31 07:17:42;;;;;;;4.57;2.10;;;14.20;84.80;;;;;;4994304;28;20109;-77
2021/05/31 07:20:12;;;;;;;3.47;1.98;;;14.30;84.70;;;;;;4994148;28;20081;-75
2021/05/31 07:22:40;;;;;;;4.07;1.73;;;14.30;83.80;;;;;;4995589;28;20081;-76
2021/05/31 07:25:09;;;;;;;4.22;2.03;;;14.50;83.00;;;;;;4994448;28;20128;-78
2021/05/31 07:27:36;;;;;;;3.47;1.80;;;14.50;81.90;;;;;;4994252;28;20145;-78
2021/05/31 07:30:04;;;;;;;3.70;2.00;;;14.60;81.20;;;;;;5002924;28;20077;-76
2021/05/31 07:32:30;;;;;;;4.60;1.90;;;14.70;79.90;;;;;;5007850;28;20101;-78
2021/05/31 07:34:58;;;;;;;3.80;1.95;;;14.80;79.00;;;;;;5008716;28;20491;-77
2021/05/31 07:37:25;;;;;;;5.40;1.80;;;14.90;77.70;;;;;;5009301;28;20066;-79
2021/05/31 07:39:52;;;;;;;4.57;2.28;;;14.90;76.90;;;;;;5010081;28;20058;-77
2021/05/31 07:42:18;;;;;;;4.53;1.88;;;14.90;75.90;;;;;;4997878;28;20054;-78
2021/05/31 07:44:45;;;;;;;3.55;1.73;;;15.00;74.80;;;;;;4995735;28;20074;-78
2021/05/31 07:47:11;;;;;;;3.10;1.63;;;15.10;74.20;;;;;;4994478;28;20062;-76
2021/05/31 07:49:38;;;;;;;2.90;1.45;;;15.20;74.30;;;;;;4993945;28;20085;-76
2021/05/31 07:52:09;;;;;;;4.03;2.10;;;15.20;74.00;;;;;;4996522;28;20443;-79
2021/05/31 07:54:36;;;;;;;4.45;1.70;;;15.30;73.50;;;;;;4997720;28;20146;-76
2021/05/31 07:57:04;;;;;;;3.67;1.55;;;15.40;73.30;;;;;;4997551;28;20380;-75
2021/05/31 07:59:30;;;;;;;3.60;1.77;;;15.50;72.20;;;;;;4998170;28;20082;-78
2021/05/31 08:01:57;;;;;;;3.30;1.58;;;15.50;71.80;;;;;;4997929;28;20050;-78
2021/05/31 08:04:23;;;;;;;3.72;1.60;;;15.50;71.20;;;;;;4997463;28;20082;-78
2021/05/31 08:06:50;;;;;;;3.75;1.70;;;15.60;70.70;;;;;;4998512;28;20113;-78
2021/05/31 08:09:18;;;;;;;2.80;1.60;;;15.70;69.20;;;;;;4997811;28;20113;-78
2021/05/31 08:11:44;;;;;;;2.80;1.70;;;15.80;68.60;;;;;;4997801;28;20082;-78
2021/05/31 08:14:11;;;;;;;3.38;1.50;;;15.80;68.60;;;;;;4997174;28;20093;-79
2021/05/31 08:16:38;;;;;;;3.33;1.80;;;15.90;67.80;;;;;;4997344;28;20511;-78
2021/05/31 08:19:04;;;;;;;4.05;1.83;;;15.90;65.50;;;;;;4997350;28;20500;-78
2021/05/31 08:21:31;;;;;;;4.25;1.60;;;16.00;65.40;;;;;;4997225;28;20587;-78
2021/05/31 08:23:58;;;;;;;3.13;1.60;;;16.00;65.40;;;;;;4996833;28;20054;-80
2021/05/31 08:26:26;;;;;;;3.55;1.70;;;16.10;65.00;;;;;;4997165;28;20089;-79
2021/05/31 08:28:52;;;;;;;4.07;1.80;;;16.10;64.60;;;;;;4996962;28;20515;-77
2021/05/31 08:31:19;;;;;;;3.88;1.55;;;16.10;63.90;;;;;;4997098;28;20085;-77
2021/05/31 08:33:47;;;;;;;3.92;1.73;;;16.20;63.70;;;;;;4997139;28;20085;-78
2021/05/31 08:36:14;;;;;;;5.07;1.58;;;16.30;63.70;;;;;;4996941;28;20050;-78
2021/05/31 08:38:41;;;;;;;2.70;1.42;;;16.30;62.90;;;;;;5001825;28;20101;-77
2021/05/31 08:41:07;;;;;;;4.03;1.90;;;16.30;62.80;;;;;;4997854;28;20082;-78
2021/05/31 08:43:35;;;;;;;4.18;1.60;;;16.40;62.40;;;;;;4997324;28;20074;-76
2021/05/31 08:46:03;;;;;;;3.17;1.60;;;16.40;60.70;;;;;;4997337;28;20058;-77
2021/05/31 08:48:29;;;;;;;2.67;1.30;;;16.50;59.40;;;;;;4997093;28;20145;-78
2021/05/31 08:50:56;;;;;;;2.92;1.40;;;16.50;59.10;;;;;;4997335;28;20094;-77
2021/05/31 08:53:23;;;;;;;3.67;1.77;;;16.60;59.00;;;;;;4997041;28;20441;-78
2021/05/31 08:55:50;;;;;;;4.70;1.92;;;16.60;57.90;;;;;;4996832;28;20058;-79
2021/05/31 08:58:20;;;;;;;3.28;1.52;;;16.70;57.30;;;;;;4996802;28;20419;-79
2021/05/31 09:00:48;;;;;;;3.13;1.45;;;16.70;57.10;;;;;;4996620;28;20109;-77
2021/05/31 09:03:18;;;;;;;3.00;1.60;;;16.70;56.40;;;;;;4995107;28;20415;-79
2021/05/31 09:05:46;;;;;;;2.95;1.42;;;16.80;57.00;;;;;;4996811;28;20054;-78
2021/05/31 09:08:14;;;;;;;3.40;1.60;;;16.90;57.20;;;;;;4996855;28;20109;-78
2021/05/31 09:10:45;;;;;;;5.13;1.90;;;16.90;55.80;;;;;;4996482;28;20049;-77
2021/05/31 09:13:25;;;;;;;3.90;1.40;;;17.00;55.60;;;;;;4995125;28;20563;-78
2021/05/31 09:16:06;;;;;;;3.08;1.50;;;17.00;55.70;;;;;;4996483;28;20086;-76
2021/05/31 09:18:33;;;;;;;3.20;1.50;;;17.00;55.70;;;;;;4979132;28;20130;-77
2021/05/31 09:21:15;;;;;;;3.15;1.45;;;17.00;55.70;;;;;;4995762;28;20077;-78
2021/05/31 09:23:42;;;;;;;3.13;1.30;;;17.00;54.60;;;;;;4996354;28;20054;-77
2021/05/31 09:26:09;;;;;;;4.05;1.35;;;17.10;54.40;;;;;;4996228;28;20093;-78
2021/05/31 09:28:36;;;;;;;3.65;1.50;;;17.20;53.50;;;;;;4996016;28;20085;-77
2021/05/31 09:31:16;;;;;;;3.65;1.40;;;17.20;53.30;;;;;;4996282;28;20082;-78
2021/05/31 09:33:44;;;;;;;3.05;1.50;;;17.30;53.20;;;;;;4996883;28;20053;-76
2021/05/31 09:36:11;;;;;;;3.28;1.52;;;17.30;53.00;;;;;;4996625;28;20054;-76
2021/05/31 09:38:48;;;;;;;3.10;1.60;;;17.40;53.10;;;;;;4996506;28;20111;-76
2021/05/31 09:41:28;;;;;;;2.72;1.30;;;17.40;53.60;;;;;;4996155;28;20089;-78
2021/05/31 09:43:57;;;;;;;4.05;1.80;;;17.40;53.90;;;;;;4996713;28;20465;-77
2021/05/31 09:46:42;;;;;;;3.25;1.63;;;17.40;53.00;;;;;;4996245;28;20077;-77
2021/05/31 09:49:15;;;;;;;3.42;1.88;;;17.40;52.80;;;;;;4995992;28;20058;-80
2021/05/31 09:51:54;;;;;;;3.45;2.00;;;17.50;52.50;;;;;;4995743;28;20136;-77
2021/05/31 09:54:36;;;;;;;4.53;1.80;;;17.40;52.80;;;;;;4995263;28;20137;-77
2021/05/31 09:57:18;;;;;;;3.90;2.00;;;17.40;51.90;;;;;;4995268;28;20082;-77
2021/05/31 09:59:47;;;;;;;5.38;2.65;;;17.50;53.30;;;;;;4995736;28;20448;-78
2021/05/31 10:02:23;;;;;;;5.43;2.38;;;17.50;53.80;;;;;;4995664;28;20050;-78
2021/05/31 10:05:03;;;;;;;7.70;3.10;;;17.60;53.90;;;;;;4995432;28;20060;-78
2021/05/31 10:07:41;;;;;;;4.88;2.22;;;17.70;54.10;;;;;;4995671;28;20056;-77
2021/05/31 10:10:09;;;;;;;3.90;2.08;;;17.80;53.90;;;;;;4995367;28;20062;-78
2021/05/31 10:12:38;;;;;;;5.55;1.70;;;17.80;53.50;;;;;;4994945;28;20419;-79
2021/05/31 10:15:07;;;;;;;3.88;1.40;;;17.80;52.70;;;;;;4996039;28;20058;-77
2021/05/31 10:17:35;;;;;;;4.72;1.60;;;17.80;53.20;;;;;;4995566;28;20051;-79
2021/05/31 10:20:03;;;;;;;4.93;2.00;;;17.90;52.70;;;;;;5001003;28;20081;-74
2021/05/31 10:22:33;;;;;;;8.63;5.22;;;18.00;51.20;;;;;;4995342;28;20093;-79
2021/05/31 10:25:01;;;;;;;5.68;3.20;;;18.00;51.10;;;;;;4995124;28;20050;-77
2021/05/31 10:27:30;;;;;;;4.72;3.03;;;18.00;50.30;;;;;;4997971;28;20064;-78
2021/05/31 10:29:58;;;;;;;5.00;3.00;;;18.10;49.80;;;;;;5014358;28;20116;-79
2021/05/31 10:32:25;;;;;;;5.88;2.70;;;18.10;50.40;;;;;;5014583;28;20140;-77
2021/05/31 10:34:54;;;;;;;6.80;3.78;;;18.10;50.00;;;;;;5014468;28;20042;-78
2021/05/31 10:37:24;;;;;;;4.68;2.10;;;18.10;50.70;;;;;;5014845;28;20429;-78
2021/05/31 10:40:02;;;;;;;4.22;1.50;;;18.20;50.60;;;;;;5014503;28;20053;-78
2021/05/31 10:42:44;;;;;;;3.33;1.77;;;18.30;50.30;;;;;;5014556;28;20096;-78
2021/05/31 10:45:29;;;;;;;3.85;1.80;;;18.30;49.90;;;;;;5014179;28;20081;-78
2021/05/31 10:48:05;;;;;;;4.93;2.63;;;18.40;49.70;;;;;;5014277;28;20082;-78
2021/05/31 10:50:37;;;;;;;3.10;1.50;;;18.40;49.40;;;;;;5014934;28;20046;-77
2021/05/31 10:53:08;;;;;;;5.65;2.30;;;18.50;49.60;;;;;;5014174;28;20052;-77
2021/05/31 10:55:36;;;;;;;4.80;2.45;;;18.50;50.00;;;;;;5014070;28;20061;-79
2021/05/31 10:58:02;;;;;;;3.67;1.80;;;18.50;50.10;;;;;;5013870;28;20136;-78
2021/05/31 11:00:32;;;;;;;3.17;1.52;;;18.60;49.80;;;;;;5014206;28;20081;-78
2021/05/31 11:03:10;;;;;;;4.97;1.70;;;18.70;50.10;;;;;;5013879;28;20079;-78
2021/05/31 11:05:38;;;;;;;3.53;1.55;;;18.70;50.60;;;;;;5014064;28;20125;-78
2021/05/31 11:08:07;;;;;;;2.75;1.50;;;18.70;50.60;;;;;;5014205;28;20065;-78
2021/05/31 11:10:36;;;;;;;5.18;1.77;;;18.80;50.20;;;;;;5013816;28;20046;-77
2021/05/31 11:13:16;;;;;;;4.05;2.00;;;18.90;49.90;;;;;;5013808;28;20618;-77
2021/05/31 11:15:43;;;;;;;4.78;1.80;;;18.90;49.20;;;;;;5013902;28;20086;-77
2021/05/31 11:18:21;;;;;;;3.47;1.55;;;18.90;47.90;;;;;;5013383;28;20606;-78
2021/05/31 11:20:49;;;;;;;3.47;1.50;;;18.90;49.60;;;;;;5013486;28;20145;-78
2021/05/31 11:23:16;;;;;;;3.10;1.30;;;18.90;49.10;;;;;;5013785;28;20081;-78
2021/05/31 11:25:48;;;;;;;3.20;1.40;;;18.90;50.00;;;;;;5013076;28;20093;-78
2021/05/31 11:28:15;;;;;;;3.97;2.05;;;18.90;50.90;;;;;;5013615;28;20054;-80
2021/05/31 11:30:41;;;;;;;4.10;2.00;;;19.10;51.10;;;;;;5013893;28;20137;-76
2021/05/31 11:33:08;;;;;;;4.95;2.22;;;19.10;50.70;;;;;;5013168;28;20459;-77
2021/05/31 11:35:35;;;;;;;3.67;1.73;;;19.20;49.70;;;;;;5020214;28;20074;-77
2021/05/31 11:38:03;;;;;;;5.38;1.70;;;19.20;49.30;;;;;;5014296;28;20104;-76
2021/05/31 11:40:33;;;;;;;3.72;1.50;;;19.20;49.30;;;;;;5013873;28;20621;-74
2021/05/31 11:43:02;;;;;;;3.92;2.10;;;19.30;49.40;;;;;;5014915;28;20464;-77
2021/05/31 11:45:33;;;;;;;4.65;1.70;;;19.40;48.00;;;;;;5022227;28;20060;-77
2021/05/31 11:48:02;;;;;;;2.75;1.33;;;19.40;48.30;;;;;;5014443;28;20050;-79
2021/05/31 11:50:30;;;;;;;3.05;1.50;;;19.40;47.70;;;;;;5014071;28;20081;-78
2021/05/31 11:52:57;;;;;;;3.22;1.40;;;19.50;48.60;;;;;;5013707;28;20061;-79
2021/05/31 11:55:27;;;;;;;4.07;1.48;;;19.60;48.60;;;;;;5013749;28;20077;-79
2021/05/31 11:57:54;;;;;;;2.65;1.45;;;19.70;48.90;;;;;;5013336;28;20093;-77
2021/05/31 12:00:23;;;;;;;2.92;1.50;;;19.80;49.50;;;;;;5013299;28;20525;-76
2021/05/31 12:02:49;;;;;;;2.72;1.33;;;19.90;48.70;;;;;;5012852;28;20077;-76
2021/05/31 12:05:30;;;;;;;3.53;1.75;;;20.00;48.50;;;;;;5013300;28;20053;-78
2021/05/31 12:08:07;;;;;;;4.88;2.03;;;20.10;48.00;;;;;;5013125;28;20129;-76
2021/05/31 12:10:35;;;;;;;5.07;2.40;;;20.20;48.00;;;;;;5012894;28;20049;-79
2021/05/31 12:13:02;;;;;;;3.92;1.88;;;20.30;48.30;;;;;;5012773;28;20088;-80
2021/05/31 12:15:29;;;;;;;3.15;1.60;;;20.40;48.80;;;;;;5013721;28;20104;-79
2021/05/31 12:17:55;;;;;;;3.33;1.45;;;20.60;49.20;;;;;;5013275;28;20470;-77
2021/05/31 12:20:24;;;;;;;2.65;1.20;;;20.70;49.10;;;;;;5013775;28;20086;-77
2021/05/31 12:22:51;;;;;;;3.20;1.50;;;20.80;48.10;;;;;;5013260;28;20081;-78
2021/05/31 12:25:18;;;;;;;2.97;1.30;;;20.90;48.20;;;;;;5013373;28;20081;-77
2021/05/31 12:27:46;;;;;;;4.45;2.30;;;21.00;48.20;;;;;;5012793;28;20117;-76
2021/05/31 12:30:15;;;;;;;12.55;7.72;;;21.10;47.50;;;;;;5013230;28;20083;-75
2021/05/31 12:32:42;;;;;;;4.40;2.65;;;21.20;47.60;;;;;;5012764;28;20049;-78
2021/05/31 12:35:11;;;;;;;5.25;2.70;;;21.30;47.60;;;;;;5013086;28;20137;-77
2021/05/31 12:37:41;;;;;;;2.75;1.40;;;21.40;47.70;;;;;;5015204;28;20460;-78
2021/05/31 12:40:11;;;;;;;2.70;1.30;;;21.40;47.50;;;;;;5016981;28;20160;-77
2021/05/31 12:42:39;;;;;;;4.13;1.70;;;21.60;47.80;;;;;;5016529;28;20555;-76
2021/05/31 12:45:10;;;;;;;4.22;1.75;;;21.60;46.50;;;;;;5016596;28;20085;-77
2021/05/31 12:47:39;;;;;;;2.80;1.40;;;21.70;45.90;;;;;;5016188;28;20138;-78
2021/05/31 12:50:09;;;;;;;2.50;1.20;;;21.80;46.90;;;;;;5016524;28;20446;-77
2021/05/31 12:52:41;;;;;;;4.53;1.45;;;22.00;46.50;;;;;;5016474;28;20495;-78
2021/05/31 12:55:13;;;;;;;2.83;1.30;;;22.20;46.70;;;;;;5016731;28;20046;-78
2021/05/31 12:57:42;;;;;;;3.42;1.38;;;22.20;46.80;;;;;;5016521;28;20112;-78
2021/05/31 13:00:16;;;;;;;3.55;1.30;;;22.30;47.00;;;;;;5016247;28;20073;-77
2021/05/31 13:02:45;;;;;;;3.10;1.48;;;22.50;45.30;;;;;;5015810;28;20046;-78
2021/05/31 13:05:15;;;;;;;3.95;1.77;;;22.50;44.70;;;;;;5016140;28;20408;-76
2021/05/31 13:07:48;;;;;;;2.50;1.40;;;22.70;43.90;;;;;;5015886;28;20136;-77
2021/05/31 13:10:19;;;;;;;2.95;1.38;;;22.80;43.50;;;;;;5015949;28;20042;-76
2021/05/31 13:12:52;;;;;;;3.50;1.40;;;22.90;43.30;;;;;;5016001;28;20050;-77
2021/05/31 13:15:22;;;;;;;1.88;1.08;;;22.90;44.20;;;;;;5016402;28;20053;-75
2021/05/31 13:17:52;;;;;;;2.58;1.33;;;23.00;44.40;;;;;;5015540;28;20061;-77
2021/05/31 13:20:20;;;;;;;3.30;1.60;;;23.10;43.90;;;;;;5016022;28;20081;-77
2021/05/31 13:22:59;;;;;;;2.85;1.50;;;23.10;44.40;;;;;;5015999;28;20085;-77
2021/05/31 13:25:27;;;;;;;4.13;1.60;;;23.30;45.30;;;;;;5015786;28;20141;-78
2021/05/31 13:27:54;;;;;;;2.33;1.20;;;23.40;44.10;;;;;;5015518;28;20097;-77
2021/05/31 13:30:23;;;;;;;2.80;1.40;;;23.50;44.50;;;;;;5015895;28;20495;-78
2021/05/31 13:32:56;;;;;;;3.85;1.52;;;23.60;42.90;;;;;;5015237;28;20060;-76
2021/05/31 13:35:24;;;;;;;2.50;1.30;;;23.70;42.70;;;;;;5015704;28;20053;-77
2021/05/31 13:37:53;;;;;;;3.25;1.60;;;23.90;43.60;;;;;;5015954;28;20058;-77
2021/05/31 13:40:29;;;;;;;2.20;1.20;;;24.00;42.70;;;;;;5015684;28;20046;-78
2021/05/31 13:43:02;;;;;;;3.05;1.42;;;24.10;42.30;;;;;;5016158;28;20562;-78
2021/05/31 13:45:33;;;;;;;2.83;1.20;;;24.30;43.00;;;;;;4998169;28;20410;-76
2021/05/31 13:48:00;;;;;;;3.75;1.52;;;24.40;43.10;;;;;;5016080;28;20089;-75
2021/05/31 13:50:29;;;;;;;2.47;1.25;;;24.60;42.00;;;;;;5014347;28;20049;-77
2021/05/31 13:52:56;;;;;;;2.92;1.50;;;24.60;42.50;;;;;;5015772;28;20049;-75
2021/05/31 13:55:24;;;;;;;3.33;1.63;;;24.80;42.50;;;;;;5015792;28;20054;-77
2021/05/31 13:57:51;;;;;;;3.65;1.45;;;25.00;41.60;;;;;;5015118;28;20435;-76
2021/05/31 14:00:21;;;;;;;3.17;1.60;;;25.10;41.60;;;;;;5014185;28;20125;-76
2021/05/31 14:02:55;;;;;;;3.17;1.20;;;25.20;40.30;;;;;;5015093;28;20078;-77
2021/05/31 14:05:23;;;;;;;2.60;1.35;;;25.30;40.60;;;;;;5015334;28;20045;-78
2021/05/31 14:07:50;;;;;;;3.85;1.58;;;25.30;40.30;;;;;;4998135;28;20084;-78
2021/05/31 14:10:17;;;;;;;3.75;1.55;;;25.30;40.00;;;;;;5015113;28;20046;-77
2021/05/31 14:12:44;;;;;;;4.05;1.40;;;25.30;39.80;;;;;;5014680;28;20136;-78
2021/05/31 14:15:13;;;;;;;3.05;1.50;;;25.30;39.70;;;;;;4997923;28;20088;-75
2021/05/31 14:17:42;;;;;;;3.05;1.40;;;25.40;39.80;;;;;;5014647;28;20049;-76
2021/05/31 14:20:12;;;;;;;4.55;1.80;;;25.50;40.30;;;;;;5014677;28;20101;-76
2021/05/31 14:22:40;;;;;;;4.65;1.70;;;25.60;39.30;;;;;;5014619;28;20134;-77
2021/05/31 14:25:10;;;;;;;3.05;1.40;;;25.80;39.30;;;;;;5014664;28;20058;-77
2021/05/31 14:27:38;;;;;;;2.88;1.50;;;25.80;38.70;;;;;;5014592;28;20096;-78
2021/05/31 14:30:10;;;;;;;3.15;1.50;;;25.80;38.90;;;;;;5014515;28;20104;-76
2021/05/31 14:32:37;;;;;;;2.67;1.45;;;25.80;39.20;;;;;;5014034;28;20056;-78
2021/05/31 14:35:06;;;;;;;2.30;1.30;;;26.00;39.10;;;;;;4997225;28;20496;-77
2021/05/31 14:37:35;;;;;;;2.80;1.30;;;26.20;39.80;;;;;;5014731;28;20100;-75
2021/05/31 14:40:02;;;;;;;2.90;1.25;;;26.30;38.90;;;;;;5014693;28;20085;-77
2021/05/31 14:42:28;;;;;;;2.70;1.30;;;26.40;38.30;;;;;;5014620;28;20136;-78
2021/05/31 14:44:55;;;;;;;2.97;1.40;;;26.40;38.80;;;;;;5014461;28;20468;-77
2021/05/31 14:47:22;;;;;;;3.13;1.40;;;26.60;37.50;;;;;;5013960;28;20104;-77
2021/05/31 14:49:49;;;;;;;2.47;1.30;;;26.80;38.20;;;;;;5014612;28;20081;-77
2021/05/31 14:52:15;;;;;;;2.67;1.58;;;27.00;38.20;;;;;;5012994;28;20046;-78
2021/05/31 14:54:45;;;;;;;3.47;1.60;;;27.10;37.60;;;;;;5013452;28;20567;-79
2021/05/31 14:57:12;;;;;;;2.97;1.40;;;27.00;37.20;;;;;;5013566;28;20061;-78
2021/05/31 14:59:39;;;;;;;3.05;1.45;;;27.20;36.00;;;;;;5013460;28;20077;-79
2021/05/31 15:02:06;;;;;;;3.25;1.45;;;27.20;35.80;;;;;;5013920;28;20120;-78
2021/05/31 15:04:32;;;;;;;3.03;1.13;;;27.20;36.80;;;;;;5013146;28;20077;-76
2021/05/31 15:06:59;;;;;;;2.80;1.38;;;27.30;37.40;;;;;;5010055;28;20089;-76
2021/05/31 15:09:26;;;;;;;2.53;1.20;;;27.60;36.10;;;;;;5011101;28;20054;-76
2021/05/31 15:11:54;;;;;;;4.35;1.40;;;27.80;36.20;;;;;;5010412;28;20054;-76
2021/05/31 15:14:21;;;;;;;3.47;1.70;;;27.90;34.30;;;;;;5010356;28;20096;-79
2021/05/31 15:16:47;;;;;;;3.40;1.80;;;27.90;35.80;;;;;;5011147;28;20535;-75
2021/05/31 15:19:14;;;;;;;4.20;1.80;;;28.00;35.60;;;;;;5010829;28;20049;-77
2021/05/31 15:21:40;;;;;;;3.30;1.50;;;28.20;36.00;;;;;;5012993;28;20069;-77
2021/05/31 15:24:08;;;;;;;3.70;1.55;;;28.40;35.00;;;;;;5010526;28;20049;-78
2021/05/31 15:26:35;;;;;;;3.00;1.48;;;28.40;35.00;;;;;;5009889;28;20049;-77
2021/05/31 15:29:03;;;;;;;2.60;1.30;;;28.50;34.40;;;;;;5010019;28;20058;-78
2021/05/31 15:31:30;;;;;;;4.57;1.30;;;28.30;35.30;;;;;;5002713;28;20072;-78
2021/05/31 15:33:57;;;;;;;2.80;1.50;;;28.40;35.70;;;;;;5010523;28;20046;-78
2021/05/31 15:36:23;;;;;;;2.78;1.20;;;28.40;34.20;;;;;;5010605;28;20053;-76
2021/05/31 15:38:50;;;;;;;2.50;1.02;;;28.60;35.50;;;;;;5010515;28;20077;-78
2021/05/31 15:41:17;;;;;;;3.92;1.50;;;28.80;35.70;;;;;;5010495;28;20124;-77
2021/05/31 15:43:44;;;;;;;2.53;1.13;;;29.00;33.20;;;;;;5010882;28;20062;-76
2021/05/31 15:46:14;;;;;;;2.35;1.17;;;29.10;33.10;;;;;;5010913;28;20566;-76
2021/05/31 15:48:40;;;;;;;3.35;1.48;;;29.40;33.60;;;;;;5011802;28;20050;-76
2021/05/31 15:51:10;;;;;;;3.45;1.33;;;29.40;33.00;;;;;;5011388;28;20053;-76
2021/05/31 15:53:38;;;;;;;2.55;1.30;;;29.30;33.70;;;;;;5010852;28;20439;-75
2021/05/31 15:56:06;;;;;;;3.22;1.33;;;29.40;34.30;;;;;;5011899;28;20499;-79
2021/05/31 15:58:33;;;;;;;3.35;1.35;;;29.60;32.90;;;;;;5012239;28;20046;-76
2021/05/31 16:01:04;;;;;;;4.05;1.27;;;29.70;33.50;;;;;;5011787;28;20563;-76
2021/05/31 16:03:33;;;;;;;2.95;1.40;;;29.60;33.70;;;;;;5007263;28;20149;-76
2021/05/31 16:06:01;;;;;;;2.72;1.10;;;29.60;32.90;;;;;;5006632;28;20065;-77
2021/05/31 16:08:31;;;;;;;2.65;1.25;;;29.70;33.50;;;;;;5025002;28;20073;-76
2021/05/31 16:11:00;;;;;;;2.22;1.10;;;29.60;33.70;;;;;;4993258;28;20050;-76
2021/05/31 16:13:27;;;;;;;3.08;1.30;;;29.60;33.70;;;;;;5013824;28;20050;-75
2021/05/31 16:15:54;;;;;;;2.53;1.20;;;29.80;33.40;;;;;;5012893;28;20452;-79
2021/05/31 16:18:21;;;;;;;3.72;1.35;;;29.80;33.40;;;;;;5024720;28;20061;-77
2021/05/31 16:20:50;;;;;;;3.33;1.48;;;29.80;32.60;;;;;;5033275;28;20061;-78
2021/05/31 16:23:22;;;;;;;2.60;1.23;;;29.70;32.40;;;;;;5010341;28;20539;-79
2021/05/31 16:25:49;;;;;;;5.40;2.85;;;29.60;33.00;;;;;;5014442;28;20045;-80
2021/05/31 16:28:16;;;;;;;3.63;2.30;;;29.70;33.10;;;;;;5014264;28;20136;-78
2021/05/31 16:30:43;;;;;;;3.25;2.00;;;29.60;33.40;;;;;;5013622;28;20062;-78
2021/05/31 16:33:12;;;;;;;3.35;1.40;;;29.50;32.80;;;;;;5013080;28;20104;-77
2021/05/31 16:35:40;;;;;;;2.88;1.10;;;29.50;33.00;;;;;;5012911;28;20053;-79
2021/05/31 16:38:08;;;;;;;3.25;1.30;;;29.30;33.50;;;;;;5012546;28;20093;-78
2021/05/31 16:40:36;;;;;;;2.85;1.02;;;29.30;32.50;;;;;;5019592;28;20514;-78
2021/05/31 16:43:03;;;;;;;3.22;1.20;;;29.30;33.30;;;;;;5033084;28;20084;-75
2021/05/31 16:45:30;;;;;;;2.83;1.30;;;29.30;33.00;;;;;;5033196;28;20132;-79
2021/05/31 16:47:57;;;;;;;2.25;1.20;;;29.40;33.50;;;;;;5032995;28;20114;-78
2021/05/31 16:50:27;;;;;;;2.40;1.13;;;29.40;33.80;;;;;;5031708;28;20132;-77
2021/05/31 16:52:53;;;;;;;3.20;1.33;;;29.30;33.90;;;;;;5032710;28;20144;-81
2021/05/31 16:55:22;;;;;;;2.40;1.30;;;29.20;33.70;;;;;;5032477;28;20129;-77
2021/05/31 16:57:49;;;;;;;4.70;1.58;;;29.00;33.60;;;;;;5032265;28;20136;-75
2021/05/31 17:00:17;;;;;;;2.92;1.30;;;28.80;33.50;;;;;;5032263;28;20124;-76
2021/05/31 17:02:45;;;;;;;2.35;1.20;;;28.60;33.90;;;;;;5008454;28;20120;-78
2021/05/31 17:05:16;;;;;;;2.47;1.20;;;28.40;33.90;;;;;;5011840;28;20046;-78
2021/05/31 17:07:46;;;;;;;2.53;1.25;;;28.40;34.80;;;;;;5012999;28;20041;-76
2021/05/31 17:10:17;;;;;;;2.58;1.20;;;28.60;33.80;;;;;;5012368;28;20053;-77
2021/05/31 17:15:44;;;;;;;2.60;1.30;;;28.70;33.80;;;;;;5001026;28;20143;-79
2021/05/31 17:20:56;;;;;;;2.58;1.17;;;28.60;33.70;;;;;;4996344;28;20061;-78
2021/05/31 17:23:23;;;;;;;3.50;1.50;;;28.50;34.20;;;;;;5009502;28;20073;-78
2021/05/31 17:25:51;;;;;;;3.40;1.30;;;28.40;34.20;;;;;;5010177;28;20089;-78
2021/05/31 17:28:19;;;;;;;2.97;1.10;;;28.10;34.80;;;;;;5011559;28;20137;-78
2021/05/31 17:30:53;;;;;;;2.40;1.30;;;28.10;35.30;;;;;;4992861;28;20053;-78
2021/05/31 17:33:20;;;;;;;3.08;1.17;;;28.20;35.10;;;;;;5010037;28;20097;-77
2021/05/31 17:35:47;;;;;;;3.42;1.30;;;28.10;35.10;;;;;;5010235;28;20076;-77
2021/05/31 17:38:13;;;;;;;2.72;1.20;;;27.90;35.20;;;;;;5010058;28;20136;-78
2021/05/31 17:40:40;;;;;;;2.90;1.60;;;27.80;35.40;;;;;;5009861;28;20129;-77
2021/05/31 17:43:07;;;;;;;2.38;1.10;;;27.70;35.30;;;;;;5011021;28;20042;-77
2021/05/31 17:45:35;;;;;;;2.30;1.20;;;27.70;35.70;;;;;;5010556;28;20125;-78
2021/05/31 17:48:02;;;;;;;2.90;1.20;;;27.60;35.50;;;;;;5010690;28;20129;-78
2021/05/31 17:50:29;;;;;;;4.45;1.60;;;27.40;35.70;;;;;;5010150;28;20076;-77
2021/05/31 17:52:56;;;;;;;3.58;1.38;;;27.40;36.00;;;;;;5010263;28;20221;-77
2021/05/31 17:55:22;;;;;;;4.05;1.50;;;27.30;36.10;;;;;;5010064;28;20081;-76
2021/05/31 17:57:50;;;;;;;3.15;1.27;;;27.10;36.10;;;;;;5010426;28;20132;-75
2021/05/31 18:00:20;;;;;;;3.22;1.60;;;26.90;36.70;;;;;;5010067;28;20145;-75
2021/05/31 18:02:50;;;;;;;2.92;1.20;;;27.00;36.60;;;;;;5009930;28;20042;-78
2021/05/31 18:05:17;;;;;;;2.38;1.20;;;27.00;36.60;;;;;;5010353;28;20061;-78
2021/05/31 18:07:44;;;;;;;2.50;1.30;;;27.00;37.00;;;;;;5009627;28;20149;-77